Time;durP1;ratioP1;P1;durP2;ratioP2;P2;SDS_P1;SDS_P2;PMS_P1;PMS_P2;Temp;Humidity;BMP_temperature;BMP_pressure;BME280_temperature;BME280_humidity;BME280_pressure;Samples;Min_cycle;Max_cycle;Signal;HPM_P1;HPM_P2
2022/10/22 00:00:16;;;;;;;1.92;1.20;;;24.00;57.10;;;;;;4977208;28;20031;-68
2022/10/22 00:02:43;;;;;;;1.75;1.17;;;24.00;57.20;;;;;;4978516;28;20474;-68
2022/10/22 00:05:09;;;;;;;2.90;1.20;;;24.00;57.20;;;;;;4974640;28;20085;-68
2022/10/22 00:07:35;;;;;;;1.73;1.15;;;24.00;57.20;;;;;;4972460;28;20058;-68
2022/10/22 00:10:01;;;;;;;1.83;1.00;;;24.00;57.20;;;;;;4977924;28;20073;-69
2022/10/22 00:12:27;;;;;;;1.98;1.13;;;24.00;57.20;;;;;;4976348;28;20027;-68
2022/10/22 00:14:53;;;;;;;1.10;0.90;;;23.90;57.20;;;;;;4969679;28;20078;-68
2022/10/22 00:17:18;;;;;;;1.67;1.02;;;23.90;57.30;;;;;;4992156;28;20037;-68
2022/10/22 00:19:44;;;;;;;2.17;1.20;;;23.90;57.30;;;;;;4997601;28;20133;-67
2022/10/22 00:22:11;;;;;;;2.13;1.08;;;23.90;57.80;;;;;;4993177;28;20105;-68
2022/10/22 00:24:38;;;;;;;1.83;1.00;;;23.90;57.30;;;;;;4995157;28;20023;-68
2022/10/22 00:27:05;;;;;;;1.50;0.90;;;23.90;57.40;;;;;;4996924;28;20046;-68
2022/10/22 00:29:31;;;;;;;1.95;1.00;;;23.90;57.40;;;;;;4989948;28;20496;-68
2022/10/22 00:31:57;;;;;;;1.42;1.00;;;23.90;57.40;;;;;;4990005;28;20031;-68
2022/10/22 00:34:23;;;;;;;1.63;0.98;;;23.90;57.40;;;;;;4993061;28;20030;-68
2022/10/22 00:36:49;;;;;;;1.40;0.90;;;23.80;57.40;;;;;;4991205;28;20571;-68
2022/10/22 00:39:17;;;;;;;1.58;0.90;;;23.80;57.50;;;;;;5010594;28;20036;-68
2022/10/22 00:41:45;;;;;;;1.40;0.90;;;23.80;57.50;;;;;;4992165;28;20500;-67
2022/10/22 00:44:48;;;;;;;1.75;1.00;;;23.80;57.50;;;;;;4977738;28;20023;-68
2022/10/22 00:47:15;;;;;;;0.88;0.80;;;23.80;57.50;;;;;;4994535;28;20030;-67
2022/10/22 00:49:42;;;;;;;1.58;0.90;;;23.80;57.60;;;;;;4997852;28;20081;-68
2022/10/22 00:52:08;;;;;;;1.00;0.88;;;23.70;57.50;;;;;;4999817;28;20035;-67
2022/10/22 00:54:34;;;;;;;1.55;1.00;;;23.70;57.60;;;;;;4982514;28;20412;-67
2022/10/22 00:57:00;;;;;;;1.73;0.90;;;23.70;57.60;;;;;;5002398;28;20041;-68
2022/10/22 00:59:27;;;;;;;1.63;0.90;;;23.70;57.60;;;;;;4999340;28;20308;-67
2022/10/22 01:01:53;;;;;;;1.48;1.00;;;23.70;57.70;;;;;;4986935;28;20575;-67
2022/10/22 01:04:20;;;;;;;1.98;1.23;;;23.70;57.70;;;;;;4988352;28;20063;-68
2022/10/22 01:06:46;;;;;;;1.38;0.90;;;23.70;57.70;;;;;;4991727;28;20045;-67
2022/10/22 01:09:23;;;;;;;1.60;1.13;;;23.70;57.70;;;;;;4998172;28;20026;-68
2022/10/22 01:12:04;;;;;;;1.38;1.00;;;23.60;57.70;;;;;;4994532;28;20044;-68
2022/10/22 01:15:04;;;;;;;2.20;1.10;;;23.60;57.70;;;;;;4994555;28;20122;-67
2022/10/22 01:17:55;;;;;;;1.27;0.90;;;23.60;57.80;;;;;;4992479;28;20060;-67
2022/10/22 01:20:38;;;;;;;1.20;0.80;;;23.60;57.80;;;;;;4996237;28;20187;-67
2022/10/22 01:23:10;;;;;;;1.00;0.77;;;23.50;57.80;;;;;;5001023;28;20030;-68
2022/10/22 01:26:16;;;;;;;1.63;0.93;;;23.50;57.80;;;;;;4979703;28;20031;-68
2022/10/22 01:28:52;;;;;;;1.55;0.90;;;23.50;57.80;;;;;;4954332;28;20492;-68
2022/10/22 01:31:21;;;;;;;0.82;0.68;;;23.50;57.90;;;;;;4991910;28;20125;-68
2022/10/22 01:33:49;;;;;;;1.20;0.80;;;23.50;57.90;;;;;;4998698;28;20061;-68
2022/10/22 01:36:17;;;;;;;0.95;0.80;;;23.50;57.90;;;;;;5000057;28;20056;-68
2022/10/22 01:38:45;;;;;;;1.30;0.77;;;23.50;58.00;;;;;;5000758;28;20022;-68
2022/10/22 01:41:11;;;;;;;1.23;0.80;;;23.50;58.00;;;;;;4992932;28;20098;-68
2022/10/22 01:43:37;;;;;;;1.10;0.70;;;23.40;57.90;;;;;;4979509;28;20026;-68
2022/10/22 01:46:08;;;;;;;1.02;0.75;;;23.40;58.00;;;;;;4999096;28;20393;-68
2022/10/22 01:48:53;;;;;;;0.80;0.80;;;23.50;58.00;;;;;;4994998;28;20042;-67
2022/10/22 01:51:24;;;;;;;1.35;0.80;;;23.40;58.00;;;;;;4996157;28;20027;-68
2022/10/22 01:53:53;;;;;;;1.02;0.80;;;23.40;58.00;;;;;;4993738;28;20037;-68
2022/10/22 01:56:43;;;;;;;1.15;0.80;;;23.40;58.00;;;;;;4998094;28;20045;-68
2022/10/22 01:59:39;;;;;;;0.90;0.70;;;23.40;58.00;;;;;;4995918;28;20033;-67
2022/10/22 02:02:11;;;;;;;1.40;0.90;;;23.40;58.10;;;;;;4997504;28;20058;-68
2022/10/22 02:04:48;;;;;;;2.42;0.93;;;23.40;58.10;;;;;;4992743;28;20113;-67
2022/10/22 02:07:19;;;;;;;1.95;0.90;;;23.40;58.10;;;;;;4994917;28;20556;-67
2022/10/22 02:09:45;;;;;;;1.92;1.05;;;23.30;58.20;;;;;;4996164;28;20089;-68
2022/10/22 02:12:13;;;;;;;1.50;0.90;;;23.30;58.20;;;;;;5000763;28;20041;-67
2022/10/22 02:14:42;;;;;;;1.10;0.80;;;23.30;58.20;;;;;;4986470;28;20029;-68
2022/10/22 02:17:11;;;;;;;1.13;0.70;;;23.30;58.20;;;;;;4992674;28;20078;-68
2022/10/22 02:19:40;;;;;;;1.10;0.80;;;23.30;58.20;;;;;;4978589;28;20038;-68
2022/10/22 02:22:06;;;;;;;1.10;0.80;;;23.30;58.20;;;;;;4990047;28;20080;-67
2022/10/22 02:24:32;;;;;;;1.30;0.90;;;23.30;58.20;;;;;;5002123;28;20061;-67
2022/10/22 02:27:11;;;;;;;1.20;0.80;;;23.30;58.20;;;;;;4996693;28;20116;-68
2022/10/22 02:29:44;;;;;;;;;;;23.20;58.20;;;;;;4994549;28;20121;-67
2022/10/22 02:32:15;;;;;;;0.95;0.80;;;23.20;58.20;;;;;;5000292;28;20419;-67
2022/10/22 02:34:40;;;;;;;0.90;0.80;;;23.20;58.20;;;;;;4992161;28;20022;-67
2022/10/22 02:37:08;;;;;;;1.42;0.80;;;23.20;58.20;;;;;;4993724;28;20469;-67
2022/10/22 02:39:35;;;;;;;1.08;0.80;;;23.20;58.20;;;;;;4996420;28;20442;-67
2022/10/22 02:42:02;;;;;;;1.33;0.80;;;23.20;58.20;;;;;;4996702;28;20022;-67
2022/10/22 02:44:27;;;;;;;1.05;0.80;;;23.20;58.20;;;;;;4994888;28;20077;-67
2022/10/22 02:46:53;;;;;;;1.33;0.85;;;23.20;58.20;;;;;;4993701;28;20050;-67
2022/10/22 02:49:19;;;;;;;1.13;0.80;;;23.20;58.20;;;;;;4998567;28;20928;-67
2022/10/22 02:51:44;;;;;;;1.33;0.90;;;23.20;58.30;;;;;;5008123;28;20030;-67
2022/10/22 02:54:10;;;;;;;1.70;1.00;;;23.20;58.30;;;;;;4994558;28;20046;-67
2022/10/22 02:56:35;;;;;;;1.10;0.90;;;23.20;58.80;;;;;;4987832;28;20102;-67
2022/10/22 02:59:01;;;;;;;1.13;0.80;;;23.20;58.30;;;;;;4997683;28;20034;-67
2022/10/22 03:01:26;;;;;;;1.15;0.90;;;23.20;58.30;;;;;;4998892;28;20550;-67
2022/10/22 03:03:52;;;;;;;1.40;0.95;;;23.20;58.30;;;;;;4996194;28;20035;-67
2022/10/22 03:06:18;;;;;;;1.08;0.80;;;23.10;58.30;;;;;;4995828;28;20363;-68
2022/10/22 03:08:44;;;;;;;1.20;0.80;;;23.10;58.40;;;;;;4972736;28;20118;-67
2022/10/22 03:11:09;;;;;;;0.75;0.70;;;23.10;58.40;;;;;;4986215;28;20037;-67
2022/10/22 03:13:35;;;;;;;1.33;0.88;;;23.10;58.40;;;;;;4991848;28;20035;-67
2022/10/22 03:16:01;;;;;;;1.63;0.90;;;23.10;58.40;;;;;;4994638;28;20085;-67
2022/10/22 03:18:27;;;;;;;1.48;1.00;;;23.10;58.50;;;;;;4991643;28;20202;-67
2022/10/22 03:21:19;;;;;;;1.08;0.80;;;23.10;58.50;;;;;;4983133;28;20023;-68
2022/10/22 03:23:46;;;;;;;1.40;0.88;;;23.10;58.60;;;;;;4978543;28;20034;-67
2022/10/22 03:26:13;;;;;;;1.33;0.90;;;23.10;58.50;;;;;;4997234;28;20022;-67
2022/10/22 03:28:40;;;;;;;0.93;0.80;;;23.10;58.50;;;;;;4985036;28;20692;-67
2022/10/22 03:31:06;;;;;;;0.90;0.80;;;23.10;58.60;;;;;;4991655;28;20030;-67
2022/10/22 03:33:32;;;;;;;1.00;0.80;;;23.00;58.50;;;;;;4993774;28;20026;-67
2022/10/22 03:35:59;;;;;;;1.88;0.90;;;23.00;58.50;;;;;;4979654;28;20062;-67
2022/10/22 03:38:25;;;;;;;1.40;1.08;;;23.00;58.60;;;;;;4965012;28;20038;-67
2022/10/22 03:40:51;;;;;;;1.33;0.90;;;23.00;58.60;;;;;;4996628;28;20478;-67
2022/10/22 03:43:17;;;;;;;1.27;0.90;;;23.00;58.70;;;;;;4991902;28;20089;-67
2022/10/22 03:45:43;;;;;;;0.80;0.80;;;22.90;58.70;;;;;;4987427;28;20026;-67
2022/10/22 03:48:08;;;;;;;1.20;0.90;;;22.90;58.70;;;;;;4986383;28;20053;-67
2022/10/22 03:50:34;;;;;;;1.02;0.70;;;22.90;58.70;;;;;;4991909;28;20113;-67
2022/10/22 03:53:00;;;;;;;0.73;0.70;;;22.90;58.70;;;;;;4996373;28;20438;-67
2022/10/22 03:55:25;;;;;;;1.08;0.85;;;22.90;58.70;;;;;;4996780;28;20914;-67
2022/10/22 03:57:51;;;;;;;0.75;0.70;;;22.90;58.60;;;;;;4996804;28;20066;-67
2022/10/22 04:00:17;;;;;;;1.08;0.80;;;22.90;58.60;;;;;;4998422;28;20030;-67
2022/10/22 04:02:42;;;;;;;1.17;0.80;;;22.90;58.70;;;;;;4993502;28;20015;-67
2022/10/22 04:05:08;;;;;;;1.58;0.90;;;22.90;58.70;;;;;;4974851;28;20031;-67
2022/10/22 04:07:34;;;;;;;2.10;1.00;;;22.90;58.70;;;;;;4993230;28;20538;-67
2022/10/22 04:09:59;;;;;;;1.48;0.80;;;22.90;58.80;;;;;;4995835;28;20037;-67
2022/10/22 04:12:25;;;;;;;1.90;0.90;;;22.90;58.80;;;;;;4997444;28;20064;-67
2022/10/22 04:14:51;;;;;;;1.00;0.90;;;22.90;58.80;;;;;;4995972;28;20120;-68
2022/10/22 04:17:16;;;;;;;1.30;0.90;;;22.90;58.90;;;;;;4996115;28;20431;-68
2022/10/22 04:19:42;;;;;;;0.95;0.77;;;22.90;58.90;;;;;;4992052;28;20030;-67
2022/10/22 04:22:08;;;;;;;1.40;0.90;;;22.90;58.80;;;;;;4990750;28;20026;-67
2022/10/22 04:24:33;;;;;;;1.08;0.82;;;22.90;58.80;;;;;;4990114;28;20085;-67
2022/10/22 04:26:59;;;;;;;1.27;0.77;;;22.80;58.80;;;;;;4994073;28;20037;-67
2022/10/22 04:29:25;;;;;;;1.48;0.88;;;22.80;58.80;;;;;;4993155;28;20095;-67
2022/10/22 04:31:51;;;;;;;1.33;0.80;;;22.80;58.80;;;;;;4989396;28;20057;-67
2022/10/22 04:34:16;;;;;;;1.23;0.85;;;22.80;58.80;;;;;;5001030;28;20026;-68
2022/10/22 04:36:42;;;;;;;1.02;0.80;;;22.80;58.80;;;;;;4999751;28;20080;-67
2022/10/22 04:39:07;;;;;;;1.30;0.90;;;22.80;58.80;;;;;;4993682;28;20031;-68
2022/10/22 04:41:38;;;;;;;1.40;0.90;;;22.80;58.80;;;;;;4996545;28;20018;-67
2022/10/22 04:44:05;;;;;;;0.80;0.80;;;22.80;58.80;;;;;;4981514;28;20247;-67
2022/10/22 04:46:32;;;;;;;1.15;0.77;;;22.80;58.80;;;;;;4996288;28;20122;-67
2022/10/22 04:48:58;;;;;;;0.88;0.70;;;22.80;58.80;;;;;;4993076;28;20073;-67
2022/10/22 04:51:25;;;;;;;1.00;0.80;;;22.80;58.80;;;;;;4987682;28;20379;-67
2022/10/22 04:53:52;;;;;;;1.30;0.80;;;22.80;58.80;;;;;;4980619;28;20027;-67
2022/10/22 04:56:23;;;;;;;1.40;1.10;;;22.80;58.90;;;;;;4980262;28;20538;-67
2022/10/22 04:58:51;;;;;;;1.10;0.80;;;22.70;58.90;;;;;;4989635;28;20037;-67
2022/10/22 05:01:23;;;;;;;1.95;0.93;;;22.80;58.90;;;;;;4998745;28;20494;-67
2022/10/22 05:03:51;;;;;;;1.10;0.70;;;22.80;58.90;;;;;;4998294;28;20045;-68
2022/10/22 05:06:19;;;;;;;1.27;0.80;;;22.80;58.90;;;;;;4989102;28;20363;-68
2022/10/22 05:08:46;;;;;;;1.40;0.80;;;22.80;58.90;;;;;;4989919;28;20022;-67
2022/10/22 05:11:21;;;;;;;1.40;0.80;;;22.70;58.90;;;;;;4999216;28;20033;-68
2022/10/22 05:13:47;;;;;;;1.10;0.80;;;22.80;59.00;;;;;;4998051;28;20080;-68
2022/10/22 05:16:13;;;;;;;1.58;0.95;;;22.80;58.90;;;;;;4995226;28;20113;-67
2022/10/22 05:18:41;;;;;;;0.93;0.80;;;22.70;58.90;;;;;;4991162;28;20027;-67
2022/10/22 05:21:16;;;;;;;1.35;0.80;;;22.70;58.90;;;;;;4995623;28;20124;-67
2022/10/22 05:23:42;;;;;;;1.15;0.80;;;22.80;58.90;;;;;;4979886;28;20080;-67
2022/10/22 05:26:10;;;;;;;1.05;0.80;;;22.80;58.90;;;;;;4988072;28;20473;-67
2022/10/22 05:28:36;;;;;;;1.52;0.82;;;22.80;58.90;;;;;;4987874;28;20027;-67
2022/10/22 05:31:02;;;;;;;1.35;0.80;;;22.80;58.90;;;;;;4983780;28;20164;-67
2022/10/22 05:33:30;;;;;;;1.48;0.85;;;22.70;58.90;;;;;;4991509;28;20030;-67
2022/10/22 05:35:56;;;;;;;1.08;0.70;;;22.70;58.90;;;;;;4997382;28;20052;-67
2022/10/22 05:38:22;;;;;;;1.83;1.00;;;22.70;59.00;;;;;;4996176;28;20041;-67
2022/10/22 05:40:57;;;;;;;1.15;0.80;;;22.70;58.90;;;;;;4991604;28;20024;-68
2022/10/22 05:43:23;;;;;;;1.95;0.90;;;22.70;58.90;;;;;;4975695;28;20493;-67
2022/10/22 05:45:48;;;;;;;1.00;0.80;;;22.70;58.90;;;;;;4993638;28;20037;-67
2022/10/22 05:48:14;;;;;;;1.38;0.90;;;22.70;58.90;;;;;;4998069;28;20429;-67
2022/10/22 05:50:39;;;;;;;1.08;0.88;;;22.70;58.90;;;;;;5004655;28;20046;-67
2022/10/22 05:53:05;;;;;;;1.15;0.70;;;22.70;58.80;;;;;;5001407;28;20392;-67
2022/10/22 05:55:35;;;;;;;1.60;0.82;;;22.70;58.80;;;;;;4999005;28;20081;-67
2022/10/22 05:58:02;;;;;;;1.33;0.82;;;22.70;58.80;;;;;;4996295;28;20030;-67
2022/10/22 06:00:28;;;;;;;1.65;0.93;;;22.70;58.90;;;;;;4995301;28;20382;-67
2022/10/22 06:02:54;;;;;;;1.42;0.85;;;22.70;58.90;;;;;;5001958;28;20033;-67
2022/10/22 06:05:19;;;;;;;1.33;0.80;;;22.70;58.80;;;;;;4989295;28;20115;-67
2022/10/22 06:07:45;;;;;;;1.70;0.90;;;22.70;58.90;;;;;;4989562;28;20037;-67
2022/10/22 06:10:17;;;;;;;2.28;1.23;;;22.70;58.90;;;;;;4994052;28;20366;-67
2022/10/22 06:12:43;;;;;;;1.38;0.80;;;22.70;58.90;;;;;;4998756;28;20030;-67
2022/10/22 06:15:12;;;;;;;1.17;0.80;;;22.70;58.90;;;;;;4999357;28;20116;-67
2022/10/22 06:17:38;;;;;;;1.40;0.90;;;22.70;58.90;;;;;;4999259;28;20034;-67
2022/10/22 06:20:04;;;;;;;1.20;0.82;;;22.70;58.90;;;;;;4995972;28;20097;-67
2022/10/22 06:22:30;;;;;;;1.50;0.90;;;22.60;58.80;;;;;;4991015;28;20031;-67
2022/10/22 06:24:55;;;;;;;1.17;0.80;;;22.60;58.90;;;;;;4995743;28;20120;-67
2022/10/22 06:27:21;;;;;;;1.85;0.93;;;22.60;58.80;;;;;;4995526;28;20045;-67
2022/10/22 06:29:47;;;;;;;1.67;1.00;;;22.60;58.80;;;;;;4998857;28;20029;-67
2022/10/22 06:32:13;;;;;;;1.13;0.88;;;22.60;58.90;;;;;;4985509;28;20141;-67
2022/10/22 06:34:38;;;;;;;1.13;0.77;;;22.60;58.90;;;;;;4989849;28;20108;-68
2022/10/22 06:37:04;;;;;;;1.20;0.90;;;22.60;58.90;;;;;;4990469;28;20022;-67
2022/10/22 06:39:30;;;;;;;1.10;0.70;;;22.60;58.90;;;;;;5001187;28;20036;-67
2022/10/22 06:41:55;;;;;;;1.20;0.80;;;22.60;58.90;;;;;;4994721;28;20529;-67
2022/10/22 06:44:21;;;;;;;1.02;0.80;;;22.60;58.90;;;;;;4994345;28;20034;-67
2022/10/22 06:46:51;;;;;;;1.48;0.90;;;22.60;58.90;;;;;;5000645;28;20032;-67
2022/10/22 06:49:17;;;;;;;1.60;1.02;;;22.60;58.90;;;;;;4998575;28;20030;-67
2022/10/22 06:51:44;;;;;;;1.90;0.80;;;22.60;58.90;;;;;;4993038;28;20571;-67
2022/10/22 06:54:10;;;;;;;1.55;1.00;;;22.60;58.90;;;;;;5000684;28;20026;-67
2022/10/22 06:56:35;;;;;;;1.48;0.80;;;22.60;58.90;;;;;;4995826;28;20042;-67
2022/10/22 06:59:01;;;;;;;1.25;0.85;;;22.60;58.90;;;;;;4997705;28;20033;-67
2022/10/22 07:01:30;;;;;;;1.35;0.80;;;22.60;58.90;;;;;;4990795;28;20047;-67
2022/10/22 07:03:56;;;;;;;1.27;0.95;;;22.60;58.90;;;;;;4994751;28;20385;-68
2022/10/22 07:06:24;;;;;;;1.40;0.80;;;22.60;58.90;;;;;;5001899;28;20457;-67
2022/10/22 07:08:50;;;;;;;1.60;0.90;;;22.60;58.90;;;;;;4998622;28;20030;-67
2022/10/22 07:11:22;;;;;;;1.73;0.88;;;22.60;59.40;;;;;;4989972;28;20380;-66
2022/10/22 07:13:49;;;;;;;2.10;0.95;;;22.60;58.90;;;;;;4987027;28;20564;-66
2022/10/22 07:16:16;;;;;;;1.70;0.90;;;22.60;58.90;;;;;;4991750;28;20077;-67
2022/10/22 07:18:42;;;;;;;1.38;0.80;;;22.60;58.90;;;;;;4962631;28;20070;-66
2022/10/22 07:21:09;;;;;;;2.00;0.98;;;22.50;58.90;;;;;;4990618;28;20019;-67
2022/10/22 07:23:35;;;;;;;1.45;0.80;;;22.50;58.80;;;;;;4992939;28;20041;-67
2022/10/22 07:26:01;;;;;;;1.20;0.80;;;22.50;58.80;;;;;;4987484;28;20110;-67
2022/10/22 07:28:27;;;;;;;0.95;0.80;;;22.50;58.80;;;;;;4969666;28;20037;-67
2022/10/22 07:30:53;;;;;;;1.52;0.82;;;22.60;58.90;;;;;;4961864;28;20026;-67
2022/10/22 07:33:19;;;;;;;0.88;0.77;;;22.50;58.80;;;;;;5001111;28;20022;-68
2022/10/22 07:35:45;;;;;;;1.25;0.80;;;22.50;58.80;;;;;;5000811;28;20076;-67
2022/10/22 07:38:11;;;;;;;1.48;0.88;;;22.50;58.80;;;;;;4994439;28;20029;-67
2022/10/22 07:40:36;;;;;;;1.85;0.90;;;22.50;58.80;;;;;;4983434;28;20037;-67
2022/10/22 07:43:03;;;;;;;1.52;0.80;;;22.50;58.80;;;;;;5000122;28;20438;-67
2022/10/22 07:45:28;;;;;;;1.40;0.80;;;22.50;58.80;;;;;;5005407;28;20449;-67
2022/10/22 07:47:54;;;;;;;1.25;1.10;;;22.50;58.80;;;;;;4992066;28;20047;-67
2022/10/22 07:50:20;;;;;;;1.30;0.80;;;22.50;58.80;;;;;;4992942;28;20034;-67
2022/10/22 07:52:46;;;;;;;1.55;0.80;;;22.50;58.80;;;;;;4988927;28;20021;-67
2022/10/22 07:55:12;;;;;;;0.80;0.73;;;22.50;58.80;;;;;;4974577;28;20030;-67
2022/10/22 07:57:38;;;;;;;1.67;0.80;;;22.50;58.80;;;;;;4995725;28;20027;-67
2022/10/22 08:00:06;;;;;;;1.15;0.80;;;22.50;58.80;;;;;;4995178;28;20038;-68
2022/10/22 08:02:31;;;;;;;2.03;1.00;;;22.50;58.80;;;;;;4989827;28;20481;-66
2022/10/22 08:04:58;;;;;;;1.65;0.90;;;22.50;58.80;;;;;;4986269;28;20040;-66
2022/10/22 08:07:23;;;;;;;1.50;0.90;;;22.50;58.80;;;;;;4989035;28;20477;-67
2022/10/22 08:09:49;;;;;;;1.38;0.88;;;22.50;58.80;;;;;;4998413;28;20171;-67
2022/10/22 08:12:15;;;;;;;1.02;0.70;;;22.50;58.70;;;;;;4991713;28;20393;-67
2022/10/22 08:14:40;;;;;;;1.00;0.70;;;22.50;58.70;;;;;;4990971;28;20036;-67
2022/10/22 08:17:06;;;;;;;0.90;0.60;;;22.50;58.70;;;;;;4989168;28;20117;-67
2022/10/22 08:19:31;;;;;;;1.52;0.77;;;22.50;58.60;;;;;;4996545;28;20045;-66
2022/10/22 08:21:58;;;;;;;1.15;0.90;;;22.40;58.60;;;;;;5001744;28;20034;-67
2022/10/22 08:24:25;;;;;;;1.10;0.70;;;22.50;58.60;;;;;;4994606;28;20034;-67
2022/10/22 08:26:53;;;;;;;1.48;0.70;;;22.40;58.60;;;;;;4997132;28;20025;-67
2022/10/22 08:29:21;;;;;;;1.88;0.95;;;22.40;58.60;;;;;;4993017;28;20117;-66
2022/10/22 08:31:47;;;;;;;1.17;0.80;;;22.50;58.60;;;;;;4997163;28;20173;-67
2022/10/22 08:34:13;;;;;;;1.92;0.77;;;22.50;58.60;;;;;;4997079;28;20493;-67
2022/10/22 08:36:38;;;;;;;1.52;0.80;;;22.40;58.60;;;;;;4993181;28;20117;-67
2022/10/22 08:39:04;;;;;;;0.80;0.70;;;22.40;58.60;;;;;;4991233;28;20498;-67
2022/10/22 08:41:32;;;;;;;1.83;0.90;;;22.40;58.60;;;;;;4974854;28;20058;-67
2022/10/22 08:44:07;;;;;;;1.20;0.70;;;22.40;58.60;;;;;;4992378;28;20076;-67
2022/10/22 08:46:59;;;;;;;0.90;0.65;;;22.40;58.60;;;;;;4989804;28;20026;-67
2022/10/22 08:49:36;;;;;;;0.88;0.70;;;22.40;58.60;;;;;;4995808;28;20033;-67
2022/10/22 08:52:02;;;;;;;0.70;0.63;;;22.40;58.60;;;;;;4995390;28;20053;-67
2022/10/22 08:54:32;;;;;;;0.88;0.70;;;22.40;58.60;;;;;;4977408;28;20451;-67
2022/10/22 08:57:18;;;;;;;1.10;0.70;;;22.40;59.10;;;;;;4991461;28;20042;-67
2022/10/22 08:59:44;;;;;;;0.82;0.50;;;22.40;58.60;;;;;;5001591;28;20044;-67
2022/10/22 09:02:42;;;;;;;1.30;0.70;;;22.40;58.70;;;;;;4991787;28;20034;-67
2022/10/22 09:05:17;;;;;;;1.13;0.80;;;22.40;58.60;;;;;;4988836;28;20022;-66
2022/10/22 09:07:47;;;;;;;1.60;0.70;;;22.40;58.70;;;;;;4995571;28;20026;-67
2022/10/22 09:10:13;;;;;;;1.70;0.70;;;22.40;58.80;;;;;;4984280;28;20035;-64
2022/10/22 09:12:39;;;;;;;1.25;0.82;;;22.50;58.60;;;;;;4999278;28;20074;-65
2022/10/22 09:15:05;;;;;;;1.85;1.00;;;22.50;58.50;;;;;;4991316;28;20122;-65
2022/10/22 09:17:39;;;;;;;2.15;0.80;;;22.50;58.40;;;;;;5000198;28;20149;-65
2022/10/22 09:20:27;;;;;;;1.23;0.80;;;22.60;58.40;;;;;;4997432;28;20051;-66
2022/10/22 09:23:30;;;;;;;1.00;0.80;;;22.60;58.30;;;;;;4993652;28;20030;-65
2022/10/22 09:25:56;;;;;;;1.70;0.90;;;22.60;58.30;;;;;;5005820;28;20030;-66
2022/10/22 09:28:22;;;;;;;1.30;0.80;;;22.70;58.20;;;;;;5003751;28;20038;-64
2022/10/22 09:30:48;;;;;;;1.20;0.80;;;22.70;58.20;;;;;;5002214;28;20387;-64
2022/10/22 09:33:25;;;;;;;1.35;0.90;;;22.70;58.00;;;;;;4995386;28;20034;-64
2022/10/22 09:35:55;;;;;;;1.15;0.90;;;22.80;58.00;;;;;;4990603;28;20018;-66
2022/10/22 09:38:26;;;;;;;1.00;0.85;;;22.80;57.90;;;;;;5001517;28;20469;-67
2022/10/22 09:40:55;;;;;;;1.30;0.90;;;22.80;57.90;;;;;;4996805;28;20080;-68
2022/10/22 09:43:20;;;;;;;1.42;0.80;;;22.90;58.10;;;;;;4991225;28;20042;-67
2022/10/22 09:45:48;;;;;;;1.58;0.85;;;22.90;58.10;;;;;;4978623;28;20022;-66
2022/10/22 09:48:13;;;;;;;1.45;0.88;;;22.90;58.00;;;;;;4984216;28;20133;-66
2022/10/22 09:50:45;;;;;;;1.00;0.80;;;23.00;58.00;;;;;;4987894;28;20499;-68
2022/10/22 09:53:26;;;;;;;1.33;0.90;;;23.00;57.90;;;;;;4994768;28;20041;-67
2022/10/22 09:55:59;;;;;;;1.40;0.80;;;23.00;57.80;;;;;;4992077;28;20374;-67
2022/10/22 09:58:25;;;;;;;2.00;0.90;;;23.00;57.70;;;;;;5001854;28;20026;-67
2022/10/22 10:00:57;;;;;;;1.58;0.80;;;23.00;57.70;;;;;;4998123;28;20544;-66
2022/10/22 10:03:26;;;;;;;1.95;0.73;;;23.10;57.70;;;;;;4987627;28;20481;-67
2022/10/22 10:05:54;;;;;;;1.30;0.80;;;23.10;57.60;;;;;;4999444;28;20505;-67
2022/10/22 10:08:21;;;;;;;1.00;0.80;;;23.10;57.60;;;;;;4999772;28;20172;-66
2022/10/22 10:10:58;;;;;;;2.08;0.98;;;23.10;57.50;;;;;;4997792;28;20474;-67
2022/10/22 10:13:45;;;;;;;1.20;0.80;;;23.10;57.50;;;;;;4979819;28;20021;-65
2022/10/22 10:16:30;;;;;;;1.35;0.90;;;23.20;57.50;;;;;;4999324;28;20046;-67
2022/10/22 10:19:05;;;;;;;1.60;0.80;;;23.20;57.40;;;;;;5004595;28;20394;-66
2022/10/22 10:21:46;;;;;;;0.98;0.70;;;23.20;57.40;;;;;;4987655;28;20047;-66
2022/10/22 10:24:49;;;;;;;1.10;0.75;;;23.30;57.40;;;;;;4994426;28;20022;-67
2022/10/22 10:27:33;;;;;;;1.83;0.90;;;23.30;57.30;;;;;;4990862;28;20023;-66
2022/10/22 10:30:08;;;;;;;1.42;0.90;;;23.30;57.30;;;;;;4998395;28;20489;-66
2022/10/22 10:32:37;;;;;;;1.50;0.90;;;23.40;57.30;;;;;;4981315;28;20039;-66
2022/10/22 10:35:25;;;;;;;1.30;0.75;;;23.40;57.20;;;;;;4991182;28;20478;-67
2022/10/22 10:38:24;;;;;;;1.52;0.90;;;23.40;57.10;;;;;;4991696;28;20049;-69
2022/10/22 10:41:21;;;;;;;1.38;0.85;;;23.40;56.90;;;;;;4972648;28;20113;-66
2022/10/22 10:43:57;;;;;;;1.65;0.80;;;23.40;56.80;;;;;;4941202;28;20047;-66
2022/10/22 10:46:38;;;;;;;1.25;0.80;;;23.50;56.60;;;;;;4994691;28;20409;-65
2022/10/22 10:49:31;;;;;;;1.00;0.80;;;23.50;56.40;;;;;;4998978;28;20399;-65
2022/10/22 10:52:02;;;;;;;1.30;0.80;;;23.50;56.40;;;;;;4997273;28;20046;-65
2022/10/22 10:54:30;;;;;;;2.55;0.80;;;23.60;56.50;;;;;;4994164;28;20118;-65
2022/10/22 10:57:10;;;;;;;1.20;0.80;;;23.60;57.00;;;;;;4993928;28;20225;-65
2022/10/22 11:00:04;;;;;;;1.70;0.88;;;23.60;56.40;;;;;;4990582;28;20061;-67
2022/10/22 11:02:42;;;;;;;1.65;0.80;;;23.60;56.40;;;;;;4997963;28;20058;-65
2022/10/22 11:05:22;;;;;;;1.27;0.82;;;23.60;56.30;;;;;;4999732;28;20087;-66
2022/10/22 11:08:03;;;;;;;1.67;0.90;;;23.70;56.30;;;;;;4994697;28;20050;-66
2022/10/22 11:10:31;;;;;;;1.30;0.82;;;23.70;56.70;;;;;;4993692;28;20112;-68
2022/10/22 11:13:12;;;;;;;1.07;0.80;;;23.70;56.30;;;;;;4997332;28;20041;-67
2022/10/22 11:15:40;;;;;;;2.28;0.90;;;23.70;56.20;;;;;;4993934;28;20046;-67
2022/10/22 11:18:29;;;;;;;1.33;0.90;;;23.70;56.20;;;;;;4993617;28;20034;-67
2022/10/22 11:21:07;;;;;;;1.13;0.80;;;23.80;56.30;;;;;;4996627;28;20094;-68
2022/10/22 11:23:50;;;;;;;1.02;0.82;;;23.70;56.20;;;;;;4995261;28;20033;-68
2022/10/22 11:26:36;;;;;;;0.95;0.70;;;23.70;56.70;;;;;;4990810;28;20865;-68
2022/10/22 11:29:03;;;;;;;1.98;0.88;;;23.70;56.20;;;;;;4987235;28;20037;-68
2022/10/22 11:31:31;;;;;;;1.90;0.93;;;23.70;56.20;;;;;;4976998;28;20568;-67
2022/10/22 11:34:02;;;;;;;2.55;0.88;;;23.70;56.20;;;;;;4985342;28;20022;-68
2022/10/22 11:36:29;;;;;;;1.15;0.90;;;23.70;56.00;;;;;;4990639;28;20034;-67
2022/10/22 11:38:55;;;;;;;1.35;0.80;;;23.70;55.80;;;;;;5004257;28;20057;-68
2022/10/22 11:41:29;;;;;;;1.02;0.80;;;23.70;55.90;;;;;;5003025;28;20129;-68
2022/10/22 11:44:10;;;;;;;1.52;0.80;;;23.70;56.00;;;;;;4989665;28;20500;-68
2022/10/22 11:46:53;;;;;;;1.50;0.70;;;23.70;56.00;;;;;;4996851;28;20022;-68
2022/10/22 11:49:24;;;;;;;1.98;0.85;;;23.70;56.10;;;;;;4995876;28;20202;-68
2022/10/22 11:51:51;;;;;;;1.23;0.90;;;23.70;56.10;;;;;;5000547;28;20078;-68
2022/10/22 11:54:41;;;;;;;1.17;0.75;;;23.70;56.20;;;;;;4992444;28;20022;-67
2022/10/22 11:57:16;;;;;;;0.98;0.75;;;23.70;56.30;;;;;;4978980;28;20551;-67
2022/10/22 11:59:51;;;;;;;1.98;0.85;;;23.70;56.30;;;;;;4999527;28;20026;-67
2022/10/22 12:02:43;;;;;;;1.27;0.70;;;23.70;56.80;;;;;;5000333;28;20033;-67
2022/10/22 12:05:21;;;;;;;1.35;0.70;;;23.70;56.40;;;;;;4982602;28;20090;-67
2022/10/22 12:07:50;;;;;;;0.88;0.70;;;23.70;56.40;;;;;;4982304;28;20033;-68
2022/10/22 12:10:19;;;;;;;1.20;0.80;;;23.70;56.40;;;;;;4985823;28;20370;-68
2022/10/22 12:12:55;;;;;;;2.08;0.90;;;23.70;56.40;;;;;;4992479;28;20477;-67
2022/10/22 12:15:26;;;;;;;1.02;0.80;;;23.70;56.30;;;;;;4990596;28;20443;-67
2022/10/22 12:18:01;;;;;;;1.70;0.90;;;23.70;56.30;;;;;;4986738;28;20080;-67
2022/10/22 12:20:27;;;;;;;1.15;0.80;;;23.70;56.30;;;;;;4982771;28;20045;-67
2022/10/22 12:22:55;;;;;;;1.05;0.80;;;23.60;56.30;;;;;;4982066;28;20487;-68
2022/10/22 12:25:29;;;;;;;0.65;0.60;;;23.60;56.40;;;;;;4978547;28;20109;-67
2022/10/22 12:27:57;;;;;;;1.00;0.70;;;23.60;56.40;;;;;;4997965;28;20377;-67
2022/10/22 12:30:33;;;;;;;1.33;0.85;;;23.60;56.30;;;;;;4991159;28;20033;-67
2022/10/22 12:33:01;;;;;;;1.00;0.70;;;23.60;56.30;;;;;;4991907;28;20050;-67
2022/10/22 12:35:29;;;;;;;1.35;0.95;;;23.60;56.30;;;;;;4995522;28;20972;-68
2022/10/22 12:37:59;;;;;;;1.15;0.80;;;23.60;56.30;;;;;;5000674;28;20025;-67
2022/10/22 12:40:32;;;;;;;1.02;0.70;;;23.60;56.30;;;;;;4973563;28;20050;-68
2022/10/22 12:43:00;;;;;;;1.15;0.80;;;23.60;56.30;;;;;;4987136;28;20117;-67
2022/10/22 12:45:31;;;;;;;0.73;0.70;;;23.60;56.30;;;;;;4991129;28;20027;-67
2022/10/22 12:47:59;;;;;;;1.33;0.75;;;23.60;56.30;;;;;;4992922;28;20033;-68
2022/10/22 12:50:43;;;;;;;1.05;0.80;;;23.60;56.20;;;;;;4995855;28;20433;-68
2022/10/22 12:53:23;;;;;;;0.90;0.70;;;23.60;56.20;;;;;;4985868;28;20035;-67
2022/10/22 12:55:51;;;;;;;0.50;0.50;;;23.60;56.10;;;;;;4985393;28;20059;-67
2022/10/22 12:58:25;;;;;;;0.95;0.63;;;23.60;56.10;;;;;;4987662;28;20113;-67
2022/10/22 13:01:00;;;;;;;1.05;0.68;;;23.60;56.10;;;;;;4991878;28;20038;-67
2022/10/22 13:03:37;;;;;;;1.48;0.73;;;23.60;55.80;;;;;;4992746;28;20032;-68